sensor_id;sensor_type;location;lat;lon;timestamp;P1;durP1;ratioP1;P2;durP2;ratioP2
19560;SDS011;9927;47.792;10.616;2023-09-18T00:01:25;6.22;;;5.65;;
19560;SDS011;9927;47.792;10.616;2023-09-18T00:03:53;6.10;;;5.60;;
19560;SDS011;9927;47.792;10.616;2023-09-18T00:06:20;6.20;;;5.70;;
19560;SDS011;9927;47.792;10.616;2023-09-18T00:08:50;5.60;;;5.07;;
19560;SDS011;9927;47.792;10.616;2023-09-18T00:11:19;6.70;;;5.70;;
19560;SDS011;9927;47.792;10.616;2023-09-18T00:13:47;6.30;;;5.70;;
19560;SDS011;9927;47.792;10.616;2023-09-18T00:16:14;5.97;;;5.38;;
19560;SDS011;9927;47.792;10.616;2023-09-18T00:18:41;7.72;;;6.70;;
19560;SDS011;9927;47.792;10.616;2023-09-18T00:21:09;5.18;;;4.88;;
19560;SDS011;9927;47.792;10.616;2023-09-18T00:23:37;5.10;;;4.80;;
19560;SDS011;9927;47.792;10.616;2023-09-18T00:26:04;5.45;;;5.05;;
19560;SDS011;9927;47.792;10.616;2023-09-18T00:28:32;5.10;;;4.80;;
19560;SDS011;9927;47.792;10.616;2023-09-18T00:30:59;5.43;;;5.05;;
19560;SDS011;9927;47.792;10.616;2023-09-18T00:33:26;5.38;;;5.05;;
19560;SDS011;9927;47.792;10.616;2023-09-18T00:35:53;5.25;;;4.95;;
19560;SDS011;9927;47.792;10.616;2023-09-18T00:38:21;5.68;;;4.68;;
19560;SDS011;9927;47.792;10.616;2023-09-18T00:40:48;5.63;;;5.22;;
19560;SDS011;9927;47.792;10.616;2023-09-18T00:43:15;4.95;;;4.65;;
19560;SDS011;9927;47.792;10.616;2023-09-18T00:45:45;7.35;;;4.90;;
19560;SDS011;9927;47.792;10.616;2023-09-18T00:48:16;5.43;;;4.90;;
19560;SDS011;9927;47.792;10.616;2023-09-18T00:50:45;6.05;;;5.65;;
19560;SDS011;9927;47.792;10.616;2023-09-18T00:53:14;5.32;;;4.93;;
19560;SDS011;9927;47.792;10.616;2023-09-18T00:55:46;5.22;;;4.90;;
19560;SDS011;9927;47.792;10.616;2023-09-18T00:58:13;5.63;;;5.22;;
19560;SDS011;9927;47.792;10.616;2023-09-18T01:00:41;5.20;;;4.60;;
19560;SDS011;9927;47.792;10.616;2023-09-18T01:03:09;5.63;;;5.22;;
19560;SDS011;9927;47.792;10.616;2023-09-18T01:05:38;5.20;;;4.70;;
19560;SDS011;9927;47.792;10.616;2023-09-18T01:08:05;5.43;;;5.10;;
19560;SDS011;9927;47.792;10.616;2023-09-18T01:10:34;5.78;;;4.97;;
19560;SDS011;9927;47.792;10.616;2023-09-18T01:13:11;6.13;;;5.63;;
19560;SDS011;9927;47.792;10.616;2023-09-18T01:15:44;5.38;;;5.00;;
19560;SDS011;9927;47.792;10.616;2023-09-18T01:18:48;5.28;;;4.88;;
19560;SDS011;9927;47.792;10.616;2023-09-18T01:21:20;4.90;;;4.45;;
19560;SDS011;9927;47.792;10.616;2023-09-18T01:23:48;5.80;;;5.40;;
19560;SDS011;9927;47.792;10.616;2023-09-18T01:26:16;5.15;;;4.70;;
19560;SDS011;9927;47.792;10.616;2023-09-18T01:28:43;5.18;;;4.88;;
19560;SDS011;9927;47.792;10.616;2023-09-18T01:31:10;5.00;;;4.60;;
19560;SDS011;9927;47.792;10.616;2023-09-18T01:33:38;5.68;;;5.25;;
19560;SDS011;9927;47.792;10.616;2023-09-18T01:36:06;5.45;;;4.78;;
19560;SDS011;9927;47.792;10.616;2023-09-18T01:38:35;8.48;;;4.90;;
19560;SDS011;9927;47.792;10.616;2023-09-18T01:41:03;5.18;;;4.78;;
19560;SDS011;9927;47.792;10.616;2023-09-18T01:43:31;5.50;;;5.10;;
19560;SDS011;9927;47.792;10.616;2023-09-18T01:45:58;5.90;;;5.45;;
19560;SDS011;9927;47.792;10.616;2023-09-18T01:48:26;5.28;;;4.80;;
19560;SDS011;9927;47.792;10.616;2023-09-18T01:50:53;5.13;;;4.63;;
19560;SDS011;9927;47.792;10.616;2023-09-18T01:53:20;4.93;;;4.60;;
19560;SDS011;9927;47.792;10.616;2023-09-18T01:55:47;5.22;;;4.82;;
19560;SDS011;9927;47.792;10.616;2023-09-18T01:58:15;4.63;;;4.32;;
19560;SDS011;9927;47.792;10.616;2023-09-18T02:00:43;6.32;;;5.72;;
19560;SDS011;9927;47.792;10.616;2023-09-18T02:03:11;4.90;;;4.50;;
19560;SDS011;9927;47.792;10.616;2023-09-18T02:05:58;5.72;;;5.32;;
19560;SDS011;9927;47.792;10.616;2023-09-18T02:08:26;4.97;;;4.60;;
19560;SDS011;9927;47.792;10.616;2023-09-18T02:10:53;4.70;;;4.30;;
19560;SDS011;9927;47.792;10.616;2023-09-18T02:13:20;4.20;;;4.00;;
19560;SDS011;9927;47.792;10.616;2023-09-18T02:15:48;5.03;;;4.72;;
19560;SDS011;9927;47.792;10.616;2023-09-18T02:18:15;5.45;;;4.47;;
19560;SDS011;9927;47.792;10.616;2023-09-18T02:20:42;4.35;;;4.07;;
19560;SDS011;9927;47.792;10.616;2023-09-18T02:23:17;4.30;;;4.10;;
19560;SDS011;9927;47.792;10.616;2023-09-18T02:25:54;5.05;;;4.65;;
19560;SDS011;9927;47.792;10.616;2023-09-18T02:28:25;4.70;;;4.30;;
19560;SDS011;9927;47.792;10.616;2023-09-18T02:30:52;4.80;;;4.47;;
19560;SDS011;9927;47.792;10.616;2023-09-18T02:33:20;4.50;;;4.20;;
19560;SDS011;9927;47.792;10.616;2023-09-18T02:35:47;4.50;;;4.20;;
19560;SDS011;9927;47.792;10.616;2023-09-18T02:38:14;4.30;;;4.00;;
19560;SDS011;9927;47.792;10.616;2023-09-18T02:40:42;4.63;;;4.32;;
19560;SDS011;9927;47.792;10.616;2023-09-18T02:43:09;6.60;;;4.30;;
19560;SDS011;9927;47.792;10.616;2023-09-18T02:45:36;4.35;;;4.10;;
19560;SDS011;9927;47.792;10.616;2023-09-18T02:48:03;5.15;;;4.85;;
19560;SDS011;9927;47.792;10.616;2023-09-18T02:50:31;5.05;;;4.55;;
19560;SDS011;9927;47.792;10.616;2023-09-18T02:52:58;4.53;;;4.22;;
19560;SDS011;9927;47.792;10.616;2023-09-18T02:55:25;4.95;;;4.55;;
19560;SDS011;9927;47.792;10.616;2023-09-18T02:57:53;4.82;;;4.50;;
19560;SDS011;9927;47.792;10.616;2023-09-18T03:00:20;4.72;;;4.43;;
19560;SDS011;9927;47.792;10.616;2023-09-18T03:03:07;5.30;;;4.60;;
19560;SDS011;9927;47.792;10.616;2023-09-18T03:05:35;4.22;;;4.03;;
19560;SDS011;9927;47.792;10.616;2023-09-18T03:08:03;4.60;;;4.20;;
19560;SDS011;9927;47.792;10.616;2023-09-18T03:10:37;5.00;;;4.65;;
19560;SDS011;9927;47.792;10.616;2023-09-18T03:13:08;4.63;;;4.32;;
19560;SDS011;9927;47.792;10.616;2023-09-18T03:15:36;4.93;;;4.43;;
19560;SDS011;9927;47.792;10.616;2023-09-18T03:18:05;4.75;;;4.45;;
19560;SDS011;9927;47.792;10.616;2023-09-18T03:20:33;5.35;;;4.93;;
19560;SDS011;9927;47.792;10.616;2023-09-18T03:23:01;6.72;;;4.75;;
19560;SDS011;9927;47.792;10.616;2023-09-18T03:25:29;3.95;;;3.63;;
19560;SDS011;9927;47.792;10.616;2023-09-18T03:28:15;4.45;;;4.15;;
19560;SDS011;9927;47.792;10.616;2023-09-18T03:30:42;6.65;;;4.68;;
19560;SDS011;9927;47.792;10.616;2023-09-18T03:33:09;7.05;;;4.50;;
19560;SDS011;9927;47.792;10.616;2023-09-18T03:35:49;5.18;;;4.00;;
19560;SDS011;9927;47.792;10.616;2023-09-18T03:38:18;4.57;;;4.28;;
19560;SDS011;9927;47.792;10.616;2023-09-18T03:40:45;5.07;;;4.28;;
19560;SDS011;9927;47.792;10.616;2023-09-18T03:43:12;4.82;;;4.40;;
19560;SDS011;9927;47.792;10.616;2023-09-18T03:45:40;5.93;;;4.60;;
19560;SDS011;9927;47.792;10.616;2023-09-18T03:48:10;5.45;;;4.72;;
19560;SDS011;9927;47.792;10.616;2023-09-18T03:50:38;4.97;;;4.30;;
19560;SDS011;9927;47.792;10.616;2023-09-18T03:53:07;5.65;;;4.13;;
19560;SDS011;9927;47.792;10.616;2023-09-18T03:55:35;4.57;;;4.00;;
19560;SDS011;9927;47.792;10.616;2023-09-18T03:58:04;4.55;;;4.25;;
19560;SDS011;9927;47.792;10.616;2023-09-18T04:00:31;4.78;;;4.47;;
19560;SDS011;9927;47.792;10.616;2023-09-18T04:02:59;6.90;;;4.40;;
19560;SDS011;9927;47.792;10.616;2023-09-18T04:05:26;4.60;;;4.35;;
19560;SDS011;9927;47.792;10.616;2023-09-18T04:07:54;4.75;;;4.30;;
19560;SDS011;9927;47.792;10.616;2023-09-18T04:10:21;4.68;;;4.28;;
19560;SDS011;9927;47.792;10.616;2023-09-18T04:12:51;5.28;;;4.78;;
19560;SDS011;9927;47.792;10.616;2023-09-18T04:15:19;4.50;;;4.15;;
19560;SDS011;9927;47.792;10.616;2023-09-18T04:17:47;4.60;;;4.30;;
19560;SDS011;9927;47.792;10.616;2023-09-18T04:20:15;4.85;;;4.30;;
19560;SDS011;9927;47.792;10.616;2023-09-18T04:22:43;7.43;;;5.50;;
19560;SDS011;9927;47.792;10.616;2023-09-18T04:25:12;6.95;;;5.88;;
19560;SDS011;9927;47.792;10.616;2023-09-18T04:27:40;9.32;;;5.80;;
19560;SDS011;9927;47.792;10.616;2023-09-18T04:30:07;6.63;;;4.95;;
19560;SDS011;9927;47.792;10.616;2023-09-18T04:32:38;6.72;;;5.47;;
19560;SDS011;9927;47.792;10.616;2023-09-18T04:35:07;6.70;;;5.38;;
19560;SDS011;9927;47.792;10.616;2023-09-18T04:37:35;6.70;;;4.20;;
19560;SDS011;9927;47.792;10.616;2023-09-18T04:40:05;6.20;;;4.32;;
19560;SDS011;9927;47.792;10.616;2023-09-18T04:42:38;4.97;;;4.53;;
19560;SDS011;9927;47.792;10.616;2023-09-18T04:45:06;7.38;;;4.50;;
19560;SDS011;9927;47.792;10.616;2023-09-18T04:47:34;11.07;;;4.72;;
19560;SDS011;9927;47.792;10.616;2023-09-18T04:50:02;6.72;;;4.35;;
19560;SDS011;9927;47.792;10.616;2023-09-18T04:52:38;8.07;;;4.50;;
19560;SDS011;9927;47.792;10.616;2023-09-18T04:55:07;4.80;;;4.40;;
19560;SDS011;9927;47.792;10.616;2023-09-18T04:57:35;5.60;;;3.95;;
19560;SDS011;9927;47.792;10.616;2023-09-18T05:00:02;5.82;;;4.70;;
19560;SDS011;9927;47.792;10.616;2023-09-18T05:02:44;5.25;;;4.63;;
19560;SDS011;9927;47.792;10.616;2023-09-18T05:05:12;7.07;;;4.85;;
19560;SDS011;9927;47.792;10.616;2023-09-18T05:07:40;6.55;;;4.32;;
19560;SDS011;9927;47.792;10.616;2023-09-18T05:10:08;6.80;;;4.53;;
19560;SDS011;9927;47.792;10.616;2023-09-18T05:12:38;10.55;;;4.85;;
19560;SDS011;9927;47.792;10.616;2023-09-18T05:15:06;7.90;;;4.40;;
19560;SDS011;9927;47.792;10.616;2023-09-18T05:17:40;7.35;;;4.80;;
19560;SDS011;9927;47.792;10.616;2023-09-18T05:20:19;8.85;;;4.35;;
19560;SDS011;9927;47.792;10.616;2023-09-18T05:22:46;8.48;;;5.00;;
19560;SDS011;9927;47.792;10.616;2023-09-18T05:25:14;6.40;;;4.82;;
19560;SDS011;9927;47.792;10.616;2023-09-18T05:27:44;7.75;;;5.07;;
19560;SDS011;9927;47.792;10.616;2023-09-18T05:30:15;7.45;;;4.80;;
19560;SDS011;9927;47.792;10.616;2023-09-18T05:32:48;13.05;;;5.55;;
19560;SDS011;9927;47.792;10.616;2023-09-18T05:35:17;8.40;;;4.72;;
19560;SDS011;9927;47.792;10.616;2023-09-18T05:37:44;8.60;;;4.95;;
19560;SDS011;9927;47.792;10.616;2023-09-18T05:40:12;8.65;;;4.32;;
19560;SDS011;9927;47.792;10.616;2023-09-18T05:42:41;7.63;;;4.32;;
19560;SDS011;9927;47.792;10.616;2023-09-18T05:45:13;9.23;;;4.80;;
19560;SDS011;9927;47.792;10.616;2023-09-18T05:47:41;12.00;;;5.00;;
19560;SDS011;9927;47.792;10.616;2023-09-18T05:50:10;12.05;;;4.82;;
19560;SDS011;9927;47.792;10.616;2023-09-18T05:52:43;8.13;;;4.57;;
19560;SDS011;9927;47.792;10.616;2023-09-18T05:55:14;10.80;;;5.03;;
19560;SDS011;9927;47.792;10.616;2023-09-18T05:57:42;11.55;;;4.80;;
19560;SDS011;9927;47.792;10.616;2023-09-18T06:00:09;10.88;;;5.03;;
19560;SDS011;9927;47.792;10.616;2023-09-18T06:02:40;11.32;;;4.82;;
19560;SDS011;9927;47.792;10.616;2023-09-18T06:05:08;7.28;;;4.43;;
19560;SDS011;9927;47.792;10.616;2023-09-18T06:07:38;12.15;;;5.03;;
19560;SDS011;9927;47.792;10.616;2023-09-18T06:10:06;14.13;;;5.30;;
19560;SDS011;9927;47.792;10.616;2023-09-18T06:12:34;11.70;;;5.35;;
19560;SDS011;9927;47.792;10.616;2023-09-18T06:15:01;11.05;;;5.25;;
19560;SDS011;9927;47.792;10.616;2023-09-18T06:17:30;10.02;;;4.85;;
19560;SDS011;9927;47.792;10.616;2023-09-18T06:19:58;7.88;;;4.90;;
19560;SDS011;9927;47.792;10.616;2023-09-18T06:22:25;8.38;;;4.30;;
19560;SDS011;9927;47.792;10.616;2023-09-18T06:24:52;6.35;;;4.07;;
19560;SDS011;9927;47.792;10.616;2023-09-18T06:27:19;9.70;;;4.32;;
19560;SDS011;9927;47.792;10.616;2023-09-18T06:29:47;11.10;;;4.30;;
19560;SDS011;9927;47.792;10.616;2023-09-18T06:32:14;11.02;;;4.50;;
19560;SDS011;9927;47.792;10.616;2023-09-18T06:34:41;6.95;;;4.28;;
19560;SDS011;9927;47.792;10.616;2023-09-18T06:37:10;9.98;;;4.25;;
19560;SDS011;9927;47.792;10.616;2023-09-18T06:39:40;11.23;;;4.82;;
19560;SDS011;9927;47.792;10.616;2023-09-18T06:42:08;11.48;;;4.40;;
19560;SDS011;9927;47.792;10.616;2023-09-18T06:44:36;9.40;;;3.70;;
19560;SDS011;9927;47.792;10.616;2023-09-18T06:47:04;12.25;;;4.10;;
19560;SDS011;9927;47.792;10.616;2023-09-18T06:49:31;9.40;;;3.60;;
19560;SDS011;9927;47.792;10.616;2023-09-18T06:51:59;11.48;;;3.70;;
19560;SDS011;9927;47.792;10.616;2023-09-18T06:54:26;14.93;;;3.95;;
19560;SDS011;9927;47.792;10.616;2023-09-18T06:56:53;14.70;;;4.07;;
19560;SDS011;9927;47.792;10.616;2023-09-18T06:59:21;9.13;;;3.72;;
19560;SDS011;9927;47.792;10.616;2023-09-18T07:01:48;11.40;;;3.13;;
19560;SDS011;9927;47.792;10.616;2023-09-18T07:04:15;15.30;;;3.58;;
19560;SDS011;9927;47.792;10.616;2023-09-18T07:06:43;13.30;;;3.05;;
19560;SDS011;9927;47.792;10.616;2023-09-18T07:09:10;17.42;;;3.40;;
19560;SDS011;9927;47.792;10.616;2023-09-18T07:11:39;8.55;;;3.50;;
19560;SDS011;9927;47.792;10.616;2023-09-18T07:14:06;9.57;;;3.60;;
19560;SDS011;9927;47.792;10.616;2023-09-18T07:16:34;12.20;;;3.50;;
19560;SDS011;9927;47.792;10.616;2023-09-18T07:19:02;12.10;;;3.30;;
19560;SDS011;9927;47.792;10.616;2023-09-18T07:21:32;6.30;;;2.88;;
19560;SDS011;9927;47.792;10.616;2023-09-18T07:24:01;11.50;;;4.00;;
19560;SDS011;9927;47.792;10.616;2023-09-18T07:26:28;9.77;;;3.40;;
19560;SDS011;9927;47.792;10.616;2023-09-18T07:28:56;10.98;;;3.45;;
19560;SDS011;9927;47.792;10.616;2023-09-18T07:31:26;7.35;;;3.40;;
19560;SDS011;9927;47.792;10.616;2023-09-18T07:33:57;9.88;;;3.72;;
19560;SDS011;9927;47.792;10.616;2023-09-18T07:36:25;15.75;;;3.53;;
19560;SDS011;9927;47.792;10.616;2023-09-18T07:38:52;7.88;;;3.15;;
19560;SDS011;9927;47.792;10.616;2023-09-18T07:41:21;10.05;;;3.35;;
19560;SDS011;9927;47.792;10.616;2023-09-18T07:43:49;9.98;;;3.50;;
19560;SDS011;9927;47.792;10.616;2023-09-18T07:46:16;17.08;;;3.47;;
19560;SDS011;9927;47.792;10.616;2023-09-18T07:48:44;10.18;;;3.58;;
19560;SDS011;9927;47.792;10.616;2023-09-18T07:51:11;9.02;;;3.42;;
19560;SDS011;9927;47.792;10.616;2023-09-18T07:53:40;7.65;;;3.92;;
19560;SDS011;9927;47.792;10.616;2023-09-18T07:56:08;8.27;;;3.65;;
19560;SDS011;9927;47.792;10.616;2023-09-18T07:58:35;11.75;;;4.35;;
19560;SDS011;9927;47.792;10.616;2023-09-18T08:01:08;6.43;;;3.40;;
19560;SDS011;9927;47.792;10.616;2023-09-18T08:03:38;9.70;;;3.47;;
19560;SDS011;9927;47.792;10.616;2023-09-18T08:06:06;10.07;;;3.83;;
19560;SDS011;9927;47.792;10.616;2023-09-18T08:08:33;7.43;;;3.67;;
19560;SDS011;9927;47.792;10.616;2023-09-18T08:11:06;13.35;;;4.03;;
19560;SDS011;9927;47.792;10.616;2023-09-18T08:13:37;7.70;;;3.80;;
19560;SDS011;9927;47.792;10.616;2023-09-18T08:16:05;14.52;;;3.88;;
19560;SDS011;9927;47.792;10.616;2023-09-18T08:18:33;9.18;;;3.58;;
19560;SDS011;9927;47.792;10.616;2023-09-18T08:21:02;13.68;;;3.70;;
19560;SDS011;9927;47.792;10.616;2023-09-18T08:23:29;9.70;;;3.72;;
19560;SDS011;9927;47.792;10.616;2023-09-18T08:25:57;7.40;;;3.45;;
19560;SDS011;9927;47.792;10.616;2023-09-18T08:28:25;8.25;;;3.70;;
19560;SDS011;9927;47.792;10.616;2023-09-18T08:30:52;14.25;;;3.47;;
19560;SDS011;9927;47.792;10.616;2023-09-18T08:33:20;11.00;;;3.53;;
19560;SDS011;9927;47.792;10.616;2023-09-18T08:35:50;9.50;;;3.90;;
19560;SDS011;9927;47.792;10.616;2023-09-18T08:38:18;11.77;;;4.00;;
19560;SDS011;9927;47.792;10.616;2023-09-18T08:40:45;11.63;;;3.83;;
19560;SDS011;9927;47.792;10.616;2023-09-18T08:43:14;9.93;;;4.07;;
19560;SDS011;9927;47.792;10.616;2023-09-18T08:45:44;7.88;;;3.60;;
19560;SDS011;9927;47.792;10.616;2023-09-18T08:48:16;13.35;;;3.92;;
19560;SDS011;9927;47.792;10.616;2023-09-18T08:50:45;9.82;;;3.92;;
19560;SDS011;9927;47.792;10.616;2023-09-18T08:53:13;11.20;;;4.38;;
19560;SDS011;9927;47.792;10.616;2023-09-18T08:55:41;10.02;;;3.95;;
19560;SDS011;9927;47.792;10.616;2023-09-18T08:58:09;14.07;;;3.80;;
19560;SDS011;9927;47.792;10.616;2023-09-18T09:00:37;7.68;;;3.50;;
19560;SDS011;9927;47.792;10.616;2023-09-18T09:03:04;12.75;;;4.00;;
19560;SDS011;9927;47.792;10.616;2023-09-18T09:05:32;7.53;;;3.55;;
19560;SDS011;9927;47.792;10.616;2023-09-18T09:08:00;11.65;;;3.42;;
19560;SDS011;9927;47.792;10.616;2023-09-18T09:10:28;10.95;;;3.55;;
19560;SDS011;9927;47.792;10.616;2023-09-18T09:12:56;9.10;;;3.55;;
19560;SDS011;9927;47.792;10.616;2023-09-18T09:15:26;15.55;;;3.55;;
19560;SDS011;9927;47.792;10.616;2023-09-18T09:18:05;8.70;;;3.90;;
19560;SDS011;9927;47.792;10.616;2023-09-18T09:20:35;9.45;;;3.67;;
19560;SDS011;9927;47.792;10.616;2023-09-18T09:23:03;9.00;;;3.60;;
19560;SDS011;9927;47.792;10.616;2023-09-18T09:25:33;8.43;;;3.22;;
19560;SDS011;9927;47.792;10.616;2023-09-18T09:28:02;7.50;;;3.17;;
19560;SDS011;9927;47.792;10.616;2023-09-18T09:30:34;9.25;;;3.67;;
19560;SDS011;9927;47.792;10.616;2023-09-18T09:33:03;7.68;;;2.92;;
19560;SDS011;9927;47.792;10.616;2023-09-18T09:35:33;9.18;;;3.00;;
19560;SDS011;9927;47.792;10.616;2023-09-18T09:38:12;8.57;;;3.17;;
19560;SDS011;9927;47.792;10.616;2023-09-18T09:40:43;9.38;;;3.17;;
19560;SDS011;9927;47.792;10.616;2023-09-18T09:43:12;8.43;;;2.60;;
19560;SDS011;9927;47.792;10.616;2023-09-18T09:45:44;7.63;;;3.10;;
19560;SDS011;9927;47.792;10.616;2023-09-18T09:48:13;5.15;;;2.92;;
19560;SDS011;9927;47.792;10.616;2023-09-18T09:50:45;9.52;;;2.55;;
19560;SDS011;9927;47.792;10.616;2023-09-18T09:53:15;7.03;;;2.20;;
19560;SDS011;9927;47.792;10.616;2023-09-18T09:55:42;5.80;;;2.60;;
19560;SDS011;9927;47.792;10.616;2023-09-18T09:58:10;4.85;;;2.33;;
19560;SDS011;9927;47.792;10.616;2023-09-18T10:03:17;5.65;;;2.20;;
19560;SDS011;9927;47.792;10.616;2023-09-18T10:05:49;8.40;;;2.90;;
19560;SDS011;9927;47.792;10.616;2023-09-18T10:08:25;6.47;;;2.28;;
19560;SDS011;9927;47.792;10.616;2023-09-18T10:10:55;3.17;;;2.30;;
19560;SDS011;9927;47.792;10.616;2023-09-18T10:16:34;3.25;;;2.60;;
19560;SDS011;9927;47.792;10.616;2023-09-18T10:22:10;4.32;;;2.58;;
19560;SDS011;9927;47.792;10.616;2023-09-18T10:25:07;4.90;;;2.30;;
19560;SDS011;9927;47.792;10.616;2023-09-18T10:27:47;4.72;;;2.55;;
19560;SDS011;9927;47.792;10.616;2023-09-18T10:30:16;4.35;;;2.30;;
19560;SDS011;9927;47.792;10.616;2023-09-18T10:32:46;2.88;;;2.03;;
19560;SDS011;9927;47.792;10.616;2023-09-18T10:35:15;2.83;;;2.00;;
19560;SDS011;9927;47.792;10.616;2023-09-18T10:37:43;7.90;;;2.83;;
19560;SDS011;9927;47.792;10.616;2023-09-18T10:40:12;5.28;;;2.38;;
19560;SDS011;9927;47.792;10.616;2023-09-18T10:42:40;5.13;;;2.60;;
19560;SDS011;9927;47.792;10.616;2023-09-18T10:45:09;2.38;;;2.17;;
19560;SDS011;9927;47.792;10.616;2023-09-18T10:47:38;5.60;;;2.40;;
19560;SDS011;9927;47.792;10.616;2023-09-18T10:50:08;3.65;;;2.00;;
19560;SDS011;9927;47.792;10.616;2023-09-18T10:52:37;3.45;;;2.00;;
19560;SDS011;9927;47.792;10.616;2023-09-18T10:55:13;2.22;;;1.83;;
19560;SDS011;9927;47.792;10.616;2023-09-18T10:57:54;2.60;;;1.85;;
19560;SDS011;9927;47.792;10.616;2023-09-18T11:00:25;2.80;;;2.15;;
19560;SDS011;9927;47.792;10.616;2023-09-18T11:03:15;2.63;;;2.08;;
19560;SDS011;9927;47.792;10.616;2023-09-18T11:05:45;2.72;;;1.80;;
19560;SDS011;9927;47.792;10.616;2023-09-18T11:08:26;2.25;;;2.08;;
19560;SDS011;9927;47.792;10.616;2023-09-18T11:10:55;2.97;;;1.77;;
19560;SDS011;9927;47.792;10.616;2023-09-18T11:13:28;1.80;;;1.70;;
19560;SDS011;9927;47.792;10.616;2023-09-18T11:16:00;3.00;;;1.70;;
19560;SDS011;9927;47.792;10.616;2023-09-18T11:18:32;2.78;;;1.80;;
19560;SDS011;9927;47.792;10.616;2023-09-18T11:21:10;1.85;;;1.75;;
19560;SDS011;9927;47.792;10.616;2023-09-18T11:23:39;2.00;;;1.90;;
19560;SDS011;9927;47.792;10.616;2023-09-18T11:26:14;3.08;;;2.40;;
19560;SDS011;9927;47.792;10.616;2023-09-18T11:28:42;2.15;;;2.00;;
19560;SDS011;9927;47.792;10.616;2023-09-18T11:31:10;1.70;;;1.60;;
19560;SDS011;9927;47.792;10.616;2023-09-18T11:33:38;2.20;;;2.00;;
19560;SDS011;9927;47.792;10.616;2023-09-18T11:36:14;1.70;;;1.60;;
19560;SDS011;9927;47.792;10.616;2023-09-18T11:38:58;1.95;;;1.80;;
19560;SDS011;9927;47.792;10.616;2023-09-18T11:41:31;2.78;;;1.70;;
19560;SDS011;9927;47.792;10.616;2023-09-18T11:46:47;2.53;;;1.90;;
19560;SDS011;9927;47.792;10.616;2023-09-18T11:49:19;2.25;;;1.88;;
19560;SDS011;9927;47.792;10.616;2023-09-18T11:51:54;1.80;;;1.70;;
19560;SDS011;9927;47.792;10.616;2023-09-18T11:54:21;1.60;;;1.50;;
19560;SDS011;9927;47.792;10.616;2023-09-18T11:56:49;1.30;;;1.30;;
19560;SDS011;9927;47.792;10.616;2023-09-18T11:59:16;1.58;;;1.52;;
19560;SDS011;9927;47.792;10.616;2023-09-18T12:01:53;1.33;;;1.30;;
19560;SDS011;9927;47.792;10.616;2023-09-18T12:04:27;1.77;;;1.60;;
19560;SDS011;9927;47.792;10.616;2023-09-18T12:06:55;1.70;;;1.60;;
19560;SDS011;9927;47.792;10.616;2023-09-18T12:09:22;1.27;;;1.27;;
19560;SDS011;9927;47.792;10.616;2023-09-18T12:11:52;1.50;;;1.40;;
19560;SDS011;9927;47.792;10.616;2023-09-18T12:14:22;1.50;;;1.40;;
19560;SDS011;9927;47.792;10.616;2023-09-18T12:16:50;1.30;;;1.30;;
19560;SDS011;9927;47.792;10.616;2023-09-18T12:19:17;1.30;;;1.30;;
19560;SDS011;9927;47.792;10.616;2023-09-18T12:21:48;1.40;;;1.30;;
19560;SDS011;9927;47.792;10.616;2023-09-18T12:26:50;1.38;;;1.30;;
19560;SDS011;9927;47.792;10.616;2023-09-18T12:29:19;1.30;;;1.30;;
19560;SDS011;9927;47.792;10.616;2023-09-18T12:31:47;1.20;;;1.20;;
19560;SDS011;9927;47.792;10.616;2023-09-18T12:34:17;1.77;;;1.33;;
19560;SDS011;9927;47.792;10.616;2023-09-18T12:36:45;1.50;;;1.38;;
19560;SDS011;9927;47.792;10.616;2023-09-18T12:39:14;1.42;;;1.40;;
19560;SDS011;9927;47.792;10.616;2023-09-18T12:41:48;1.30;;;1.30;;
19560;SDS011;9927;47.792;10.616;2023-09-18T12:44:15;1.30;;;1.30;;
19560;SDS011;9927;47.792;10.616;2023-09-18T12:46:44;1.42;;;1.30;;
19560;SDS011;9927;47.792;10.616;2023-09-18T12:49:19;1.60;;;1.50;;
19560;SDS011;9927;47.792;10.616;2023-09-18T12:51:58;2.28;;;1.30;;
19560;SDS011;9927;47.792;10.616;2023-09-18T12:54:38;2.03;;;1.45;;
19560;SDS011;9927;47.792;10.616;2023-09-18T12:57:15;1.50;;;1.40;;
19560;SDS011;9927;47.792;10.616;2023-09-18T12:59:42;1.45;;;1.45;;
19560;SDS011;9927;47.792;10.616;2023-09-18T13:02:12;1.30;;;1.30;;
19560;SDS011;9927;47.792;10.616;2023-09-18T13:04:40;1.33;;;1.25;;
19560;SDS011;9927;47.792;10.616;2023-09-18T13:07:14;1.40;;;1.40;;
19560;SDS011;9927;47.792;10.616;2023-09-18T13:09:41;1.70;;;1.48;;
19560;SDS011;9927;47.792;10.616;2023-09-18T13:12:09;2.88;;;1.50;;
19560;SDS011;9927;47.792;10.616;2023-09-18T13:17:27;3.75;;;1.30;;
19560;SDS011;9927;47.792;10.616;2023-09-18T13:19:54;2.42;;;1.73;;
19560;SDS011;9927;47.792;10.616;2023-09-18T13:22:22;2.17;;;1.50;;
19560;SDS011;9927;47.792;10.616;2023-09-18T13:24:58;2.15;;;1.50;;
19560;SDS011;9927;47.792;10.616;2023-09-18T13:27:26;1.60;;;1.50;;
19560;SDS011;9927;47.792;10.616;2023-09-18T13:29:53;2.40;;;1.70;;
19560;SDS011;9927;47.792;10.616;2023-09-18T13:32:21;3.42;;;1.80;;
19560;SDS011;9927;47.792;10.616;2023-09-18T13:34:49;1.55;;;1.45;;
19560;SDS011;9927;47.792;10.616;2023-09-18T13:37:16;3.13;;;1.27;;
19560;SDS011;9927;47.792;10.616;2023-09-18T13:39:45;1.67;;;1.30;;
19560;SDS011;9927;47.792;10.616;2023-09-18T13:42:12;1.42;;;1.42;;
19560;SDS011;9927;47.792;10.616;2023-09-18T13:44:39;2.05;;;1.40;;
19560;SDS011;9927;47.792;10.616;2023-09-18T13:47:06;1.48;;;1.40;;
19560;SDS011;9927;47.792;10.616;2023-09-18T13:49:34;1.70;;;1.60;;
19560;SDS011;9927;47.792;10.616;2023-09-18T13:52:02;1.30;;;1.30;;
19560;SDS011;9927;47.792;10.616;2023-09-18T13:54:30;1.30;;;1.30;;
19560;SDS011;9927;47.792;10.616;2023-09-18T13:56:57;1.63;;;1.50;;
19560;SDS011;9927;47.792;10.616;2023-09-18T13:59:25;2.10;;;1.38;;
19560;SDS011;9927;47.792;10.616;2023-09-18T14:01:52;1.45;;;1.45;;
19560;SDS011;9927;47.792;10.616;2023-09-18T14:04:21;1.50;;;1.50;;
19560;SDS011;9927;47.792;10.616;2023-09-18T14:06:49;1.70;;;1.58;;
19560;SDS011;9927;47.792;10.616;2023-09-18T14:09:16;1.40;;;1.30;;
19560;SDS011;9927;47.792;10.616;2023-09-18T14:11:43;1.30;;;1.30;;
19560;SDS011;9927;47.792;10.616;2023-09-18T14:14:11;2.22;;;1.48;;
19560;SDS011;9927;47.792;10.616;2023-09-18T14:16:39;1.45;;;1.35;;
19560;SDS011;9927;47.792;10.616;2023-09-18T14:19:06;1.85;;;1.75;;
19560;SDS011;9927;47.792;10.616;2023-09-18T14:21:37;1.50;;;1.40;;
19560;SDS011;9927;47.792;10.616;2023-09-18T14:24:06;1.38;;;1.20;;
19560;SDS011;9927;47.792;10.616;2023-09-18T14:26:34;2.33;;;1.30;;
19560;SDS011;9927;47.792;10.616;2023-09-18T14:29:07;1.30;;;1.30;;
19560;SDS011;9927;47.792;10.616;2023-09-18T14:31:38;1.20;;;1.20;;
19560;SDS011;9927;47.792;10.616;2023-09-18T14:34:06;1.80;;;1.65;;
19560;SDS011;9927;47.792;10.616;2023-09-18T14:36:34;1.45;;;1.45;;
19560;SDS011;9927;47.792;10.616;2023-09-18T14:39:04;2.05;;;1.50;;
19560;SDS011;9927;47.792;10.616;2023-09-18T14:41:35;1.60;;;1.50;;
19560;SDS011;9927;47.792;10.616;2023-09-18T14:44:04;1.63;;;1.50;;
19560;SDS011;9927;47.792;10.616;2023-09-18T14:46:32;1.58;;;1.48;;
19560;SDS011;9927;47.792;10.616;2023-09-18T14:49:03;2.65;;;1.63;;
19560;SDS011;9927;47.792;10.616;2023-09-18T14:51:31;1.45;;;1.45;;
19560;SDS011;9927;47.792;10.616;2023-09-18T14:53:59;1.50;;;1.50;;
19560;SDS011;9927;47.792;10.616;2023-09-18T14:56:27;2.60;;;1.50;;
19560;SDS011;9927;47.792;10.616;2023-09-18T14:58:54;1.55;;;1.55;;
19560;SDS011;9927;47.792;10.616;2023-09-18T15:01:22;1.50;;;1.50;;
19560;SDS011;9927;47.792;10.616;2023-09-18T15:03:49;3.20;;;1.73;;
19560;SDS011;9927;47.792;10.616;2023-09-18T15:06:20;1.70;;;1.60;;
19560;SDS011;9927;47.792;10.616;2023-09-18T15:08:48;1.60;;;1.50;;
19560;SDS011;9927;47.792;10.616;2023-09-18T15:11:15;1.40;;;1.40;;
19560;SDS011;9927;47.792;10.616;2023-09-18T15:13:46;2.08;;;1.58;;
19560;SDS011;9927;47.792;10.616;2023-09-18T15:16:13;1.38;;;1.38;;